Clifford Maersk — OYRO2 — position and weather

sailwx.info

Track history (hours):
 
Tides and Currents Weather Stations Pressure Air Temp Water Temp Dewpoint Dewpoint Depression Visibility Wind Speed Wind Dir Waves Ship Positions

Clifford Maersk

Last reported at 2014-Jul-23 11:28 UTC. Time now 2014-Jul-24 02:20 UTC.
Position N 33°44' E 024°50'.

Type: Ship (hazmat cat A). MMSI: 219840000.

Date/timePositionNaut miles runAvg speedWind from/ knotsBaromVisibWave heightAir tempDewpointWater temp
2014-Jul-23 11:28N 33°44' E 024°50'2320.9
2014-Jul-23 10:21N 33°37' E 025°17'1720.6
2014-Jul-23 09:31N 33°32' E 025°37'2220.8
2014-Jul-23 08:28N 33°25' E 026°01'8621.0
2014-Jul-23 04:23N 32°58' E 027°39'1821.6
2014-Jul-23 03:33N 32°52' E 027°59'2222.0
2014-Jul-23 02:33N 32°46' E 028°24'2222.2
2014-Jul-23 01:33N 32°39' E 028°49'2222.3
2014-Jul-23 00:33N 32°32' E 029°14'2221.8
2014-Jul-22 23:33N 32°25' E 029°39'2221.4
2014-Jul-22 22:30N 32°18' E 030°04'4921.1
2014-Jul-22 20:10N 32°03' E 030°60'1921.1
2014-Jul-22 19:16N 31°57' E 031°21'1621.1
2014-Jul-22 18:31N 31°52' E 031°38'1920.0
2014-Jul-22 17:33N 31°45' E 031°59'1717.3
2014-Jul-22 16:33N 31°33' E 032°14'1413.7
2014-Jul-22 15:33N 31°21' E 032°23'8 8.5
2014-Jul-22 14:34N 31°13' E 032°21'13 9.1
2014-Jul-22 13:08N 31°00' E 032°19'  
Track history (hours):
 
Tides and Currents Weather Stations Pressure Air Temp Water Temp Dewpoint Dewpoint Depression Visibility Wind Speed Wind Dir Waves Ship Positions

Clifford Maersk

Last reported at 2014-Jul-23 11:28 UTC. Time now 2014-Jul-24 02:20 UTC.
Position N 33°44' E 024°50'.

Type: Ship (hazmat cat A). MMSI: 219840000.

Date/timePositionNaut miles runAvg speedWind from/ knotsBaromVisibWave heightAir tempDewpointWater temp
2014-Jul-23 11:28N 33°44' E 024°50'2320.9
2014-Jul-23 10:21N 33°37' E 025°17'1720.6
2014-Jul-23 09:31N 33°32' E 025°37'2220.8
2014-Jul-23 08:28N 33°25' E 026°01'8621.0
2014-Jul-23 04:23N 32°58' E 027°39'1821.6
2014-Jul-23 03:33N 32°52' E 027°59'2222.0
2014-Jul-23 02:33N 32°46' E 028°24'2222.2
2014-Jul-23 01:33N 32°39' E 028°49'2222.3
2014-Jul-23 00:33N 32°32' E 029°14'2221.8
2014-Jul-22 23:33N 32°25' E 029°39'2221.4
2014-Jul-22 22:30N 32°18' E 030°04'4921.1
2014-Jul-22 20:10N 32°03' E 030°60'1921.1
2014-Jul-22 19:16N 31°57' E 031°21'1621.1
2014-Jul-22 18:31N 31°52' E 031°38'1920.0
2014-Jul-22 17:33N 31°45' E 031°59'1717.3
2014-Jul-22 16:33N 31°33' E 032°14'1413.7
2014-Jul-22 15:33N 31°21' E 032°23'8 8.5
2014-Jul-22 14:34N 31°13' E 032°21'13 9.1
2014-Jul-22 13:08N 31°00' E 032°19'  

Dump ship's entire track history